createdAt,value
2019-04-26T00:03:33.448Z,80.50
2019-04-26T00:07:40.673Z,80.50
2019-04-26T00:11:51.573Z,80.70
2019-04-26T00:15:59.477Z,81.00
2019-04-26T00:20:07.846Z,81.20
2019-04-26T00:24:15.180Z,81.60
2019-04-26T00:28:21.523Z,82.10
2019-04-26T00:32:27.862Z,82.30
2019-04-26T00:36:34.258Z,82.90
2019-04-26T00:40:42.046Z,82.60
2019-04-26T00:44:48.641Z,83.00
2019-04-26T00:48:56.884Z,84.00
2019-04-26T00:53:03.848Z,85.90
2019-04-26T00:57:14.471Z,85.90
2019-04-26T01:01:22.788Z,86.90
2019-04-26T01:05:30.773Z,87.10
2019-04-26T01:09:37.036Z,87.20
2019-04-26T01:13:43.258Z,87.60
2019-04-26T01:17:49.686Z,87.70
2019-04-26T01:22:02.186Z,88.00
2019-04-26T01:26:14.368Z,88.20
2019-04-26T01:30:21.680Z,88.30
2019-04-26T01:34:28.843Z,88.80
2019-04-26T01:38:35.233Z,89.30
2019-04-26T01:42:52.193Z,89.80
2019-04-26T01:46:58.559Z,90.10
2019-04-26T01:51:05.658Z,90.40
2019-04-26T01:55:12.585Z,90.60
2019-04-26T01:59:20.984Z,90.80
2019-04-26T02:03:30.262Z,91.00
2019-04-26T02:07:40.279Z,91.10
2019-04-26T02:11:46.580Z,90.90
2019-04-26T02:15:52.834Z,90.70
2019-04-26T02:19:59.206Z,90.70
2019-04-26T02:24:10.069Z,90.70
2019-04-26T02:28:16.386Z,90.80
2019-04-26T02:32:23.262Z,90.90
2019-04-26T02:36:47.948Z,91.00
2019-04-26T02:40:38.220Z,91.30
2019-04-26T02:44:49.196Z,91.60
2019-04-26T02:49:22.380Z,91.80
2019-04-26T02:53:44.117Z,92.20
2019-04-26T02:57:53.603Z,92.50
2019-04-26T03:02:03.356Z,92.70
2019-04-26T03:06:10.149Z,92.60
2019-04-26T03:10:16.874Z,92.20
2019-04-26T03:14:25.350Z,92.00
2019-04-26T03:18:43.068Z,92.10
2019-04-26T03:23:11.782Z,92.20
2019-04-26T03:27:21.143Z,92.50
2019-04-26T03:31:56.526Z,92.70
2019-04-26T03:36:07.493Z,92.80
2019-04-26T03:40:54.903Z,93.30
2019-04-26T03:45:19.612Z,93.40
2019-04-26T03:49:31.898Z,93.70
2019-04-26T03:53:42.552Z,94.20
2019-04-26T03:58:05.415Z,94.70
2019-04-26T04:02:28.161Z,95.10
2019-04-26T04:06:52.520Z,95.10
2019-04-26T04:10:53.298Z,95.20
2019-04-26T04:15:20.809Z,95.10
2019-04-26T04:20:02.835Z,95.20
2019-04-26T04:24:12.168Z,95.20
2019-04-26T04:28:52.854Z,92.80
2019-04-26T04:33:04.851Z,90.50
2019-04-26T04:37:14.234Z,87.00
2019-04-26T04:41:31.320Z,81.20
2019-04-26T04:46:04.530Z,74.00
2019-04-26T04:50:17.717Z,65.60
2019-04-26T04:54:38.946Z,57.90
2019-04-26T04:58:54.231Z,50.80
2019-04-26T05:03:11.083Z,45.80
2019-04-26T05:07:38.066Z,43.60
2019-04-26T05:12:02.258Z,40.60
2019-04-26T05:16:33.067Z,37.20
2019-04-26T05:20:55.461Z,37.10
2019-04-26T05:25:42.444Z,35.20
2019-04-26T05:30:20.110Z,35.00
2019-04-26T05:34:48.916Z,33.90
2019-04-26T05:39:01.390Z,33.30
2019-04-26T05:43:32.031Z,32.10
2019-04-26T05:48:14.750Z,30.90
2019-04-26T05:52:34.531Z,29.50
2019-04-26T05:57:11.250Z,29.00
2019-04-26T06:01:42.761Z,28.50
2019-04-26T06:06:19.274Z,28.20
2019-04-26T06:10:32.950Z,27.70
2019-04-26T06:15:00.896Z,27.80
2019-04-26T06:19:17.321Z,29.10
2019-04-26T06:23:32.354Z,28.70
2019-04-26T06:28:06.145Z,28.90
2019-04-26T06:32:18.108Z,29.80
2019-04-26T06:36:28.543Z,29.80
2019-04-26T06:40:53.456Z,28.00
2019-04-26T06:45:11.312Z,25.50
2019-04-26T06:49:31.047Z,24.70
2019-04-26T06:53:46.424Z,24.70
2019-04-26T06:58:13.117Z,25.40
2019-04-26T07:02:38.758Z,26.80
2019-04-26T07:07:03.282Z,28.50
2019-04-26T07:11:43.036Z,29.20
2019-04-26T07:16:27.372Z,28.80
2019-04-26T07:20:38.501Z,28.50
2019-04-26T07:25:25.663Z,27.10
2019-04-26T07:30:02.343Z,27.20
2019-04-26T07:34:23.587Z,27.40
2019-04-26T07:38:50.743Z,27.00
2019-04-26T07:43:19.886Z,27.50
2019-04-26T07:47:42.296Z,28.10
2019-04-26T07:52:08.557Z,28.40
2019-04-26T07:56:26.534Z,27.70
2019-04-26T08:00:45.185Z,25.80
2019-04-26T08:05:04.278Z,24.90
2019-04-26T08:09:24.789Z,24.30
2019-04-26T08:13:24.041Z,24.20
2019-04-26T08:17:51.034Z,24.70
2019-04-26T08:22:15.163Z,23.90
2019-04-26T08:26:11.652Z,24.10
2019-04-26T08:30:19.379Z,23.70
2019-04-26T08:34:33.672Z,23.50
2019-04-26T08:38:39.296Z,23.70
2019-04-26T08:42:53.481Z,23.30
2019-04-26T08:47:21.543Z,22.60
2019-04-26T08:51:25.549Z,22.80
2019-04-26T08:55:34.846Z,22.90
2019-04-26T08:59:51.450Z,22.60
2019-04-26T09:04:19.454Z,23.20
2019-04-26T09:08:28.863Z,23.90
2019-04-26T09:12:38.202Z,24.60
2019-04-26T09:16:50.401Z,23.90
2019-04-26T09:20:52.690Z,23.70
2019-04-26T09:25:06.516Z,23.70
2019-04-26T09:29:31.775Z,23.60
2019-04-26T09:33:46.075Z,24.10
2019-04-26T09:37:52.380Z,24.50
2019-04-26T09:42:09.583Z,24.70
2019-04-26T09:46:15.904Z,24.80
2019-04-26T09:50:23.861Z,25.60
2019-04-26T09:54:30.295Z,27.20
2019-04-26T09:58:36.531Z,29.00
2019-04-26T10:02:43.131Z,30.00
2019-04-26T10:06:49.527Z,31.40
2019-04-26T10:10:55.786Z,33.10
2019-04-26T10:15:03.773Z,33.90
2019-04-26T10:19:11.199Z,35.50
2019-04-26T10:23:17.470Z,36.90
2019-04-26T10:27:23.754Z,37.20
2019-04-26T10:31:30.656Z,36.80
2019-04-26T10:35:36.956Z,32.10
2019-04-26T10:39:43.183Z,29.70
2019-04-26T10:43:49.443Z,29.90
2019-04-26T10:47:55.706Z,32.10
2019-04-26T10:52:02.030Z,33.60
2019-04-26T10:56:13.155Z,33.00
2019-04-26T11:00:22.734Z,32.90
2019-04-26T11:04:29.066Z,33.40
2019-04-26T11:08:35.542Z,34.60
2019-04-26T11:12:43.458Z,35.40
2019-04-26T11:16:49.752Z,34.80
2019-04-26T11:20:56.310Z,33.80
2019-04-26T11:25:02.634Z,34.60
2019-04-26T11:29:09.558Z,36.30
2019-04-26T11:33:16.230Z,37.90
2019-04-26T11:37:22.495Z,39.70
2019-04-26T11:41:28.734Z,39.80
2019-04-26T11:45:34.998Z,40.50
2019-04-26T11:49:43.021Z,39.40
2019-04-26T11:53:49.465Z,39.40
2019-04-26T11:57:55.725Z,40.10
2019-04-26T12:02:02.358Z,40.60
2019-04-26T12:06:10.751Z,41.50
2019-04-26T12:10:17.347Z,43.00
2019-04-26T12:14:24.241Z,44.80
2019-04-26T12:18:30.639Z,45.70
2019-04-26T12:22:39.389Z,47.20
2019-04-26T12:26:46.368Z,47.50
2019-04-26T12:30:54.121Z,47.90
2019-04-26T12:35:02.674Z,48.40
2019-04-26T12:39:10.889Z,48.70
2019-04-26T12:43:20.030Z,49.10
2019-04-26T12:47:40.138Z,50.00
2019-04-26T12:51:48.794Z,49.70
2019-04-26T12:55:58.242Z,50.70
2019-04-26T13:00:04.558Z,51.00
2019-04-26T13:04:11.186Z,51.00
2019-04-26T13:08:18.151Z,51.10
2019-04-26T13:12:29.825Z,51.20
2019-04-26T13:16:38.494Z,52.20
2019-04-26T13:20:44.751Z,52.70
2019-04-26T13:24:51.019Z,51.60
2019-04-26T13:28:58.784Z,50.80
2019-04-26T13:33:05.114Z,51.40
2019-04-26T13:37:11.383Z,52.40
2019-04-26T13:41:17.631Z,52.80
2019-04-26T13:45:43.754Z,53.50
2019-04-26T13:49:57.697Z,54.70
2019-04-26T13:54:04.795Z,56.50
2019-04-26T13:58:11.035Z,58.40
2019-04-26T14:02:18.218Z,59.40
2019-04-26T14:06:24.546Z,61.60
2019-04-26T14:10:30.802Z,62.80
2019-04-26T14:14:37.091Z,63.70
2019-04-26T14:18:43.898Z,65.80
2019-04-26T14:23:06.606Z,68.30
2019-04-26T14:27:15.047Z,70.30
2019-04-26T14:31:21.572Z,71.50
2019-04-26T14:35:27.826Z,72.70
2019-04-26T14:39:43.292Z,73.70
2019-04-26T14:43:42.636Z,74.20
2019-04-26T14:47:48.909Z,74.30
2019-04-26T14:51:56.160Z,73.70
2019-04-26T14:56:02.584Z,74.70
2019-04-26T15:00:09.850Z,75.40
2019-04-26T15:04:33.136Z,76.30
2019-04-26T15:08:44.386Z,77.50
2019-04-26T15:12:52.703Z,78.50
2019-04-26T15:16:56.251Z,79.00
2019-04-26T15:21:04.025Z,79.70
2019-04-26T15:25:11.945Z,80.60
2019-04-26T15:29:21.330Z,81.40
2019-04-26T15:33:26.602Z,82.30
2019-04-26T15:37:32.865Z,82.90
2019-04-26T15:41:40.784Z,83.00
2019-04-26T15:46:02.253Z,83.50
2019-04-26T15:50:11.054Z,84.00
2019-04-26T15:54:17.794Z,84.80
2019-04-26T15:58:25.344Z,85.50
2019-04-26T16:02:32.090Z,86.00
2019-04-26T16:06:41.918Z,87.10
2019-04-26T16:10:46.352Z,87.60
2019-04-26T16:14:52.618Z,88.10
2019-04-26T16:18:58.886Z,88.00
2019-04-26T16:23:07.263Z,87.30
2019-04-26T16:27:13.924Z,87.50
2019-04-26T16:31:42.215Z,87.90
2019-04-26T16:35:49.754Z,89.20
2019-04-26T16:39:56.014Z,89.30
2019-04-26T16:44:02.764Z,90.00
2019-04-26T16:48:09.147Z,90.30
2019-04-26T16:52:16.463Z,90.50
2019-04-26T16:56:26.528Z,90.80
2019-04-26T17:00:50.157Z,91.00
2019-04-26T17:05:03.073Z,91.40
2019-04-26T17:09:07.363Z,91.30
2019-04-26T17:13:14.902Z,91.40
2019-04-26T17:17:22.381Z,91.70
2019-04-26T17:21:30.640Z,92.00
2019-04-26T17:25:38.901Z,92.10
2019-04-26T17:29:45.158Z,92.10
2019-04-26T17:33:51.433Z,92.30
2019-04-26T17:38:02.050Z,92.20
2019-04-26T17:42:05.556Z,92.30
2019-04-26T17:46:14.645Z,92.10
2019-04-26T17:50:20.541Z,92.90
2019-04-26T17:54:45.610Z,93.80
2019-04-26T17:58:49.047Z,94.50
2019-04-26T18:02:47.884Z,96.40
2019-04-26T18:06:57.805Z,98.60
2019-04-26T18:10:58.814Z,99.90
2019-04-26T18:15:11.554Z,99.90
2019-04-26T18:19:16.477Z,99.90
2019-04-26T18:23:24.301Z,99.90
2019-04-26T18:27:35.679Z,99.90
2019-04-26T18:31:38.512Z,99.90
2019-04-26T18:35:48.849Z,99.90
2019-04-26T18:39:53.447Z,99.90
2019-04-26T18:44:00.889Z,99.90
2019-04-26T18:48:08.134Z,99.90
2019-04-26T18:52:14.703Z,99.90
2019-04-26T18:56:21.122Z,99.90
2019-04-26T19:00:34.588Z,99.90
2019-04-26T19:04:47.588Z,99.90
2019-04-26T19:08:50.864Z,99.90
2019-04-26T19:13:00.138Z,99.90
2019-04-26T19:17:14.732Z,99.90
2019-04-26T19:21:22.838Z,99.90
2019-04-26T19:25:33.306Z,99.90
2019-04-26T19:29:37.907Z,99.90
2019-04-26T19:33:47.701Z,99.90
2019-04-26T19:37:53.017Z,99.90
2019-04-26T19:41:59.338Z,99.90
2019-04-26T19:46:25.226Z,99.90
2019-04-26T19:50:33.248Z,99.90
2019-04-26T19:54:57.276Z,99.90
2019-04-26T19:59:03.595Z,99.90
2019-04-26T20:03:13.399Z,99.90
2019-04-26T20:07:18.151Z,99.90
2019-04-26T20:11:24.406Z,99.90
2019-04-26T20:15:31.829Z,99.90
2019-04-26T20:19:38.281Z,99.90
2019-04-26T20:23:47.354Z,99.90
2019-04-26T20:27:53.751Z,99.90
2019-04-26T20:32:12.569Z,99.90
2019-04-26T20:36:18.737Z,99.90
2019-04-26T20:40:26.141Z,99.90
2019-04-26T20:44:48.207Z,99.90
2019-04-26T20:48:42.384Z,99.90
2019-04-26T20:52:48.203Z,99.90
2019-04-26T20:56:55.639Z,99.90
2019-04-26T21:01:06.405Z,99.90
2019-04-26T21:05:14.525Z,99.90
2019-04-26T21:09:19.574Z,99.90
2019-04-26T21:13:30.512Z,99.90
2019-04-26T21:17:33.847Z,99.90
2019-04-26T21:21:41.979Z,99.90
2019-04-26T21:25:49.660Z,99.90
2019-04-26T21:30:04.016Z,99.90
2019-04-26T21:34:15.235Z,99.90
2019-04-26T21:38:39.986Z,99.90
2019-04-26T21:42:47.902Z,99.90
2019-04-26T21:46:58.692Z,99.90
2019-04-26T21:51:03.125Z,99.90
2019-04-26T21:55:09.605Z,99.90
2019-04-26T21:59:15.846Z,99.90
2019-04-26T22:03:22.267Z,99.90
2019-04-26T22:07:28.495Z,99.90
2019-04-26T22:11:35.118Z,99.90
2019-04-26T22:15:44.046Z,99.90
2019-04-26T22:19:54.691Z,99.90
2019-04-26T22:24:05.971Z,99.90
2019-04-26T22:28:13.071Z,99.90
2019-04-26T22:32:19.368Z,99.90
2019-04-26T22:36:27.457Z,99.90
2019-04-26T22:40:33.722Z,99.90
2019-04-26T22:44:58.414Z,99.90
2019-04-26T22:49:05.928Z,99.90
2019-04-26T22:53:12.495Z,99.90
2019-04-26T22:57:18.744Z,99.90
2019-04-26T23:01:25.144Z,99.90
2019-04-26T23:05:37.745Z,99.90
2019-04-26T23:09:40.103Z,99.90
2019-04-26T23:13:50.729Z,99.90
2019-04-26T23:17:58.597Z,99.90
2019-04-26T23:22:05.320Z,99.90
2019-04-26T23:26:12.902Z,99.90
2019-04-26T23:30:19.472Z,99.90
2019-04-26T23:34:25.734Z,99.90
2019-04-26T23:38:34.617Z,99.90
2019-04-26T23:42:39.871Z,99.90
2019-04-26T23:46:46.115Z,99.90
2019-04-26T23:50:53.832Z,99.90
2019-04-26T23:55:00.221Z,99.90
2019-04-26T23:59:06.451Z,99.90
